createdAt,value
2022-11-21T04:09:18.488Z,33.60
2022-11-21T04:11:46.979Z,35.33
2022-11-21T04:14:15.216Z,34.40
2022-11-21T04:16:43.632Z,36.40
2022-11-21T04:19:11.907Z,34.37
2022-11-21T04:21:43.145Z,35.90
2022-11-21T04:24:11.649Z,36.07
2022-11-21T04:26:41.251Z,35.67
2022-11-21T04:29:09.610Z,35.60
2022-11-21T04:31:39.199Z,37.33
2022-11-21T04:34:07.914Z,33.93
2022-11-21T04:36:36.588Z,33.50
2022-11-21T04:39:05.097Z,34.87
2022-11-21T04:41:33.350Z,35.00
2022-11-21T04:44:03.075Z,33.63
2022-11-21T04:46:31.404Z,34.27
2022-11-21T04:48:59.722Z,33.70
2022-11-21T04:51:27.998Z,36.10
2022-11-21T04:53:56.218Z,34.30
2022-11-21T04:56:24.514Z,35.77
2022-11-21T04:58:53.551Z,36.87
2022-11-21T05:01:23.365Z,36.87
2022-11-21T05:03:53.411Z,35.70
2022-11-21T05:06:21.775Z,34.77
2022-11-21T05:08:52.881Z,33.90
2022-11-21T05:11:40.043Z,34.53
2022-11-21T05:14:09.383Z,34.03
2022-11-21T05:16:38.972Z,34.63
2022-11-21T05:19:07.731Z,35.03
2022-11-21T05:21:36.433Z,35.37
2022-11-21T05:24:04.776Z,33.20
2022-11-21T05:26:33.121Z,35.00
2022-11-21T05:29:01.701Z,35.40
2022-11-21T05:31:30.095Z,35.67
2022-11-21T05:33:59.927Z,35.87
2022-11-21T05:36:28.332Z,36.70
2022-11-21T05:38:56.736Z,35.53
2022-11-21T05:41:26.476Z,38.63
2022-11-21T05:43:54.123Z,35.93
2022-11-21T05:46:26.486Z,36.80
2022-11-21T05:48:56.147Z,33.43
2022-11-21T05:51:25.942Z,35.63
2022-11-21T05:53:55.387Z,37.03
2022-11-21T05:56:23.703Z,35.70
2022-11-21T05:58:51.994Z,36.73
2022-11-21T06:01:40.978Z,33.80
2022-11-21T06:04:09.115Z,36.13
2022-11-21T06:06:39.156Z,34.83
2022-11-21T06:09:10.089Z,35.97
2022-11-21T06:11:38.498Z,37.20
2022-11-21T06:14:06.979Z,35.53
2022-11-21T06:16:35.284Z,37.40
2022-11-21T06:19:03.605Z,37.60
2022-11-21T06:21:34.297Z,35.97
2022-11-21T06:24:08.007Z,40.50
2022-11-21T06:26:36.419Z,38.60
2022-11-21T06:29:05.083Z,38.77
2022-11-21T06:31:33.512Z,37.97
2022-11-21T06:34:03.612Z,39.30
2022-11-21T06:36:31.952Z,36.67
2022-11-21T06:39:00.229Z,36.10
2022-11-21T06:41:31.083Z,38.77
2022-11-21T06:44:00.982Z,36.53
2022-11-21T06:46:29.487Z,40.67
2022-11-21T06:48:57.845Z,39.37
2022-11-21T06:51:27.114Z,35.77
2022-11-21T06:54:01.179Z,36.30
2022-11-21T06:56:32.621Z,35.97
2022-11-21T06:59:02.990Z,35.77
2022-11-21T07:01:37.659Z,38.90
2022-11-21T07:04:08.741Z,39.00
2022-11-21T07:06:40.252Z,40.17
2022-11-21T07:09:32.172Z,38.77
2022-11-21T07:12:21.186Z,38.67
2022-11-21T07:14:48.645Z,40.63
2022-11-21T07:17:16.980Z,41.20
2022-11-21T07:19:50.307Z,42.80
2022-11-21T07:22:24.408Z,40.77
2022-11-21T07:24:52.825Z,41.23
2022-11-21T07:27:24.733Z,39.70
2022-11-21T07:29:55.170Z,40.77
2022-11-21T07:32:23.494Z,37.60
2022-11-21T07:34:51.761Z,38.43
2022-11-21T07:37:20.051Z,37.73
2022-11-21T07:39:54.313Z,35.73
2022-11-21T07:42:24.099Z,34.53
2022-11-21T07:44:55.240Z,37.03
2022-11-21T07:47:26.149Z,36.83
2022-11-21T07:49:54.584Z,37.93
2022-11-21T07:52:22.981Z,34.87
2022-11-21T07:54:52.475Z,36.10
2022-11-21T07:57:20.953Z,36.40
2022-11-21T07:59:51.853Z,37.67
2022-11-21T08:02:22.542Z,34.97
2022-11-21T08:04:53.127Z,37.00
2022-11-21T08:07:25.227Z,39.13
2022-11-21T08:09:53.744Z,38.27
2022-11-21T08:12:24.824Z,36.07
2022-11-21T08:14:56.516Z,36.30
2022-11-21T08:17:26.671Z,36.87
2022-11-21T08:19:54.977Z,37.07
2022-11-21T08:22:23.224Z,34.93
2022-11-21T08:24:54.029Z,36.00
2022-11-21T08:27:22.632Z,36.07
2022-11-21T08:29:52.498Z,35.97
2022-11-21T08:32:22.346Z,38.03
2022-11-21T08:34:50.586Z,37.57
2022-11-21T08:37:21.173Z,36.47
2022-11-21T08:39:51.277Z,37.13
2022-11-21T08:42:19.720Z,34.23
2022-11-21T08:44:51.299Z,34.37
2022-11-21T08:47:34.261Z,33.97
2022-11-21T08:50:08.791Z,32.13
2022-11-21T08:52:39.651Z,33.87
2022-11-21T08:55:11.533Z,33.53
2022-11-21T08:57:45.463Z,30.20
2022-11-21T09:00:14.937Z,32.83
2022-11-21T09:03:21.819Z,32.73
2022-11-21T09:05:52.362Z,29.67
2022-11-21T09:08:22.629Z,29.70
2022-11-21T09:10:57.386Z,29.27
2022-11-21T09:13:36.056Z,29.77
2022-11-21T09:16:24.835Z,29.57
2022-11-21T09:18:57.718Z,28.80
2022-11-21T09:21:26.253Z,27.83
2022-11-21T09:23:54.606Z,27.10
2022-11-21T09:26:22.975Z,28.80
2022-11-21T09:28:53.638Z,27.87
2022-11-21T09:31:23.242Z,28.70
2022-11-21T09:33:55.092Z,26.07
2022-11-21T09:36:27.453Z,25.40
2022-11-21T09:39:01.084Z,24.77
2022-11-21T09:41:52.921Z,25.47
2022-11-21T09:44:54.660Z,25.57
2022-11-21T09:47:28.367Z,23.33
2022-11-21T09:50:02.071Z,22.47
2022-11-21T09:52:40.899Z,24.27
2022-11-21T09:55:33.972Z,22.83
2022-11-21T09:58:08.019Z,22.57
2022-11-21T10:00:36.732Z,21.70
2022-11-21T10:03:05.297Z,21.90
2022-11-21T10:05:50.125Z,22.93
2022-11-21T10:08:30.832Z,20.77
2022-11-21T10:11:18.112Z,22.57
2022-11-21T10:14:04.235Z,21.53
2022-11-21T10:16:42.326Z,22.13
2022-11-21T10:19:42.267Z,23.40
2022-11-21T10:22:36.834Z,23.20
2022-11-21T10:25:27.291Z,21.27
2022-11-21T10:28:00.928Z,19.17
2022-11-21T10:30:30.034Z,21.30
2022-11-21T10:33:05.946Z,20.20
2022-11-21T10:35:40.933Z,19.87
2022-11-21T10:38:23.412Z,19.60
2022-11-21T10:41:09.523Z,19.73
2022-11-21T10:44:02.063Z,18.97
2022-11-21T10:46:30.180Z,18.97
2022-11-21T10:49:01.210Z,20.43
2022-11-21T10:51:43.574Z,18.93
2022-11-21T10:54:31.304Z,19.00
2022-11-21T10:57:07.928Z,18.77
2022-11-21T10:59:36.084Z,16.77
2022-11-21T11:02:23.506Z,19.57
2022-11-21T11:05:21.557Z,17.83
2022-11-21T11:08:02.369Z,18.27
2022-11-21T11:10:30.967Z,18.77
2022-11-21T11:13:44.663Z,19.83
2022-11-21T11:16:08.524Z,19.00
2022-11-21T11:18:41.055Z,19.10
2022-11-21T11:21:18.893Z,20.13
2022-11-21T11:23:48.148Z,19.67
2022-11-21T11:26:25.463Z,20.70
2022-11-21T11:29:05.745Z,20.63
2022-11-21T11:31:42.562Z,20.20
2022-11-21T11:34:15.134Z,20.43
2022-11-21T11:36:54.886Z,21.57
2022-11-21T11:39:36.265Z,21.43
2022-11-21T11:42:51.359Z,20.30
2022-11-21T11:45:53.626Z,19.47
2022-11-21T11:48:21.846Z,19.20
2022-11-21T11:50:52.581Z,18.83
2022-11-21T11:53:22.617Z,18.73
2022-11-21T11:55:54.580Z,19.93
2022-11-21T11:58:27.955Z,19.17
2022-11-21T12:01:03.819Z,20.87
2022-11-21T12:03:41.070Z,20.27
2022-11-21T12:06:15.943Z,19.90
2022-11-21T12:08:53.062Z,23.40
2022-11-21T12:11:52.657Z,20.97
2022-11-21T12:14:51.158Z,22.23
2022-11-21T12:17:25.344Z,21.57
2022-11-21T12:19:55.429Z,21.27
2022-11-21T12:22:23.909Z,22.17
2022-11-21T12:24:52.006Z,20.90
2022-11-21T12:27:29.736Z,20.77
2022-11-21T12:30:16.079Z,21.57
2022-11-21T12:32:57.214Z,21.40
2022-11-21T12:35:47.928Z,21.10
2022-11-21T12:38:26.928Z,21.63
2022-11-21T12:41:32.248Z,19.13
2022-11-21T12:44:11.616Z,19.43
2022-11-21T12:46:49.012Z,20.83
2022-11-21T12:49:49.076Z,20.70
2022-11-21T12:52:42.484Z,21.60
2022-11-21T12:55:25.436Z,20.60
2022-11-21T12:58:18.245Z,20.00
2022-11-21T13:01:21.440Z,21.93
2022-11-21T13:03:59.104Z,20.50
2022-11-21T13:06:30.785Z,21.53
2022-11-21T13:09:02.515Z,21.50
2022-11-21T13:12:02.229Z,21.70
2022-11-21T13:14:42.362Z,20.70
2022-11-21T13:17:24.265Z,21.03
2022-11-21T13:19:58.804Z,22.03
2022-11-21T13:22:51.156Z,21.50
2022-11-21T13:25:47.671Z,22.00
2022-11-21T13:28:37.708Z,22.33
2022-11-21T13:31:28.930Z,22.27
2022-11-21T13:33:57.413Z,21.77
2022-11-21T13:36:40.318Z,20.27
2022-11-21T13:39:38.141Z,22.60
2022-11-21T13:42:34.276Z,20.40
2022-11-21T13:45:39.898Z,20.57
2022-11-21T13:48:39.163Z,21.30
2022-11-21T13:51:36.119Z,21.47
2022-11-21T13:54:43.882Z,21.23
2022-11-21T13:57:32.025Z,21.47
2022-11-21T14:00:42.980Z,20.40
2022-11-21T14:03:34.745Z,21.17
2022-11-21T14:06:32.757Z,21.27
2022-11-21T14:09:25.764Z,21.30
2022-11-21T14:12:02.188Z,22.37
2022-11-21T14:14:37.102Z,22.73
2022-11-21T14:17:19.699Z,22.00
2022-11-21T14:19:49.548Z,26.07
2022-11-21T14:22:31.919Z,24.67
2022-11-21T14:25:07.487Z,25.43
2022-11-21T14:27:45.144Z,27.13
2022-11-21T14:30:29.575Z,26.67
2022-11-21T14:32:58.254Z,27.87
2022-11-21T14:35:26.505Z,26.70
2022-11-21T14:37:56.022Z,28.63
2022-11-21T14:40:25.928Z,26.00
2022-11-21T14:42:55.682Z,26.77
2022-11-21T14:45:27.437Z,27.03
2022-11-21T14:47:59.200Z,26.97
2022-11-21T14:50:29.453Z,26.17
2022-11-21T14:53:00.513Z,28.90
2022-11-21T14:55:32.161Z,28.47
2022-11-21T14:58:09.467Z,27.07
2022-11-21T15:03:28.299Z,28.80
2022-11-21T15:06:05.748Z,29.87
2022-11-21T15:11:29.857Z,28.50
2022-11-21T15:14:15.560Z,30.97
2022-11-21T15:16:45.081Z,28.93
2022-11-21T15:19:13.267Z,27.80
2022-11-21T15:21:46.486Z,29.70
2022-11-21T15:24:20.324Z,45.80
2022-11-21T15:26:48.437Z,32.27
2022-11-21T15:29:22.429Z,30.20
2022-11-21T15:32:14.049Z,28.27
2022-11-21T15:34:44.735Z,30.33
2022-11-21T15:37:16.575Z,30.80
2022-11-21T15:39:46.236Z,30.07
2022-11-21T15:42:38.966Z,38.60
2022-11-21T15:45:25.990Z,32.47
2022-11-21T15:47:55.622Z,29.77
2022-11-21T15:50:25.331Z,31.23
2022-11-21T15:52:54.726Z,26.50
2022-11-21T15:55:26.043Z,28.87
2022-11-21T15:57:54.299Z,27.57
2022-11-21T16:00:23.996Z,26.63
2022-11-21T16:02:52.111Z,31.53
2022-11-21T16:05:20.369Z,28.13
2022-11-21T16:07:48.886Z,26.00
2022-11-21T16:10:24.290Z,27.47
2022-11-21T16:12:56.240Z,26.47
2022-11-21T16:15:26.142Z,26.07
2022-11-21T16:17:54.301Z,25.23
2022-11-21T16:20:23.125Z,29.03
2022-11-21T16:22:51.240Z,29.47
2022-11-21T16:25:19.581Z,29.83
2022-11-21T16:27:49.679Z,26.53
2022-11-21T16:30:17.981Z,28.17
2022-11-21T16:32:47.559Z,25.97
2022-11-21T16:35:15.922Z,29.07
2022-11-21T16:37:44.523Z,27.97
2022-11-21T16:40:13.437Z,28.47
2022-11-21T16:42:41.876Z,28.03
2022-11-21T16:45:11.523Z,29.93
2022-11-21T16:47:42.017Z,29.50
2022-11-21T16:50:15.579Z,29.63
2022-11-21T16:52:43.923Z,28.73
2022-11-21T16:55:14.147Z,33.37
2022-11-21T16:57:43.303Z,29.17
2022-11-21T17:00:13.052Z,28.63
2022-11-21T17:02:41.219Z,28.43
2022-11-21T17:05:09.890Z,26.30
2022-11-21T17:07:39.475Z,26.57
2022-11-21T17:10:08.536Z,29.30
2022-11-21T17:12:38.969Z,29.57
2022-11-21T17:15:09.242Z,29.47
2022-11-21T17:17:37.479Z,30.30
2022-11-21T17:20:06.319Z,32.17
2022-11-21T17:22:34.973Z,28.37
2022-11-21T17:25:04.601Z,27.93
2022-11-21T17:27:32.942Z,28.87
2022-11-21T17:30:01.076Z,26.13
2022-11-21T17:32:29.278Z,27.20
2022-11-21T17:34:57.500Z,28.07
2022-11-21T17:37:26.274Z,28.10
2022-11-21T17:39:54.569Z,29.97
2022-11-21T17:42:26.872Z,31.33
2022-11-21T17:44:55.115Z,28.30
2022-11-21T17:47:23.289Z,27.87
2022-11-21T17:49:51.497Z,28.33
2022-11-21T17:52:19.785Z,28.47
2022-11-21T17:54:48.966Z,28.67
2022-11-21T17:57:18.561Z,29.50
2022-11-21T17:59:48.631Z,26.57
2022-11-21T18:02:22.464Z,30.17
2022-11-21T18:04:53.516Z,28.53
2022-11-21T18:07:22.037Z,28.17
2022-11-21T18:09:50.205Z,30.00
2022-11-21T18:12:18.649Z,29.17
2022-11-21T18:14:48.255Z,43.03
2022-11-21T18:17:18.713Z,32.93
2022-11-21T18:19:47.057Z,29.13
2022-11-21T18:22:15.265Z,32.17
2022-11-21T18:24:43.357Z,34.80
2022-11-21T18:27:11.681Z,32.30
2022-11-21T18:29:41.124Z,28.47
2022-11-21T18:32:10.758Z,28.40
2022-11-21T18:34:39.036Z,28.33
2022-11-21T18:37:07.316Z,28.47
2022-11-21T18:39:35.540Z,27.87
2022-11-21T18:42:03.813Z,28.43
2022-11-21T18:44:31.950Z,28.87
2022-11-21T18:47:00.257Z,28.33
2022-11-21T18:49:30.023Z,27.27
2022-11-21T18:51:58.343Z,29.33
2022-11-21T18:54:26.530Z,28.47
2022-11-21T18:56:55.127Z,26.73
2022-11-21T18:59:23.478Z,29.10
2022-11-21T19:01:51.842Z,28.87
2022-11-21T19:04:20.045Z,28.40
2022-11-21T19:06:49.803Z,27.97
2022-11-21T19:09:18.054Z,28.90
2022-11-21T19:11:46.208Z,26.80
2022-11-21T19:14:14.650Z,28.17
2022-11-21T19:16:42.939Z,29.40
2022-11-21T19:19:33.680Z,30.50
2022-11-21T19:22:01.825Z,28.53
2022-11-21T19:24:30.182Z,28.07
2022-11-21T19:26:58.584Z,30.17
2022-11-21T19:29:27.128Z,28.53
2022-11-21T19:31:55.905Z,31.17
2022-11-21T19:34:24.268Z,29.77
2022-11-21T19:36:53.160Z,30.03
2022-11-21T19:39:22.881Z,30.37
2022-11-21T19:41:51.174Z,30.20
2022-11-21T19:44:19.312Z,29.27
2022-11-21T19:46:48.128Z,30.10
2022-11-21T19:49:19.338Z,29.97
2022-11-21T19:51:47.755Z,31.20
2022-11-21T19:54:17.041Z,30.70
2022-11-21T19:56:46.589Z,30.50
2022-11-21T19:59:15.535Z,30.63
2022-11-21T20:01:48.168Z,30.20
2022-11-21T20:04:19.400Z,30.10
2022-11-21T20:06:47.871Z,30.10
2022-11-21T20:09:17.792Z,31.80
2022-11-21T20:11:49.781Z,31.70
2022-11-21T20:14:22.324Z,31.73
2022-11-21T20:16:52.948Z,31.03
2022-11-21T20:19:24.019Z,32.87
2022-11-21T20:21:52.967Z,31.00
2022-11-21T20:24:21.212Z,30.90
2022-11-21T20:26:51.024Z,30.63
2022-11-21T20:29:19.394Z,31.53
2022-11-21T20:31:48.494Z,32.67
2022-11-21T20:34:17.226Z,30.43
2022-11-21T20:36:46.902Z,31.27
2022-11-21T20:39:16.691Z,32.90
2022-11-21T20:41:45.806Z,33.37
2022-11-21T20:47:05.658Z,32.53
2022-11-21T20:49:35.049Z,33.50
2022-11-21T20:54:51.441Z,33.00
2022-11-21T20:57:19.527Z,35.27
2022-11-21T20:59:49.060Z,36.83
2022-11-21T21:02:19.008Z,41.97
2022-11-21T21:04:47.257Z,35.10
2022-11-21T21:07:15.463Z,35.07
2022-11-21T21:09:43.674Z,34.63
2022-11-21T21:12:11.879Z,34.23
2022-11-21T21:14:40.060Z,33.37
2022-11-21T21:17:09.590Z,37.23
2022-11-21T21:19:37.758Z,38.10
2022-11-21T21:22:06.068Z,36.03
2022-11-21T21:24:34.226Z,35.50
2022-11-21T21:27:02.409Z,34.00
2022-11-21T21:29:31.183Z,35.50
2022-11-21T21:31:59.605Z,33.73
2022-11-21T21:34:29.659Z,35.17
2022-11-21T21:36:58.659Z,32.47
2022-11-21T21:39:27.332Z,33.40
2022-11-21T21:41:56.021Z,33.77
2022-11-21T21:44:29.896Z,35.30
2022-11-21T21:47:01.366Z,31.10
2022-11-21T21:49:31.084Z,33.20
2022-11-21T21:51:59.356Z,33.47
2022-11-21T21:54:27.941Z,32.03
2022-11-21T21:56:56.167Z,32.33
2022-11-21T21:59:25.663Z,33.17
2022-11-21T22:01:53.940Z,31.90
2022-11-21T22:04:24.339Z,32.43
2022-11-21T22:06:54.120Z,32.50
2022-11-21T22:09:23.047Z,30.77
2022-11-21T22:11:51.204Z,34.97
2022-11-21T22:14:19.490Z,32.87
2022-11-21T22:16:47.789Z,32.10
2022-11-21T22:19:16.624Z,31.57
2022-11-21T22:21:44.837Z,34.03
2022-11-21T22:24:31.545Z,33.57
2022-11-21T22:26:59.768Z,32.93
2022-11-21T22:29:28.288Z,32.73
2022-11-21T22:31:56.540Z,32.67
2022-11-21T22:34:24.895Z,32.20
2022-11-21T22:36:52.984Z,32.73
2022-11-21T22:39:22.518Z,31.70
2022-11-21T22:41:50.707Z,31.97
2022-11-21T22:44:19.256Z,30.43
2022-11-21T22:46:47.407Z,31.07
2022-11-21T22:49:15.629Z,31.30
2022-11-21T22:51:45.373Z,31.00
2022-11-21T22:54:13.929Z,31.63
2022-11-21T22:56:43.386Z,30.03
2022-11-21T22:59:13.999Z,32.07
2022-11-21T23:01:42.334Z,30.47
